• Join FlightAware (Why Join?)
  • Login
  • US Flag 
08:11AM EDT


 

Airport Tracker/Info


-or-


 

Live Flight TrackerFlight Track Log ✈ SKW5516 ✈ 02-Jun-2013 ✈ KAUS - KSFO

Flight Track Log - Related Links

Times and Time Zones

All times are in EDT time to prevent confusion due to time zone crossing. See the SKW5516 flight status page for this flight to view local times or setup timezone preferences in your user account.

Time Position Orientation Groundspeed Altitude Reporting Facility
EDT Latitude Longitude Course Direction KTS MPH feet Rate Location/Type
07:57AM 30.4083 -97.6413 291° West  Level FlightAware Approximate
07:57AM 30.2567 -97.8175 291° West 251 289 5,500  Level Houston Center
07:58AM 30.4514 -97.7662 293° West  Level FlightAware Approximate
07:58AM 30.3047 -97.9011 304° West 276 318 8,300  Level Houston Center
07:59AM 30.4965 -97.8903 293° West  Level FlightAware Approximate
07:59AM 30.3431 -97.9694 303° West 278 320 10,500  Level Houston Center
08:00AM 30.5387 -98.0157 291° West  Level FlightAware Approximate
08:00AM 30.3883 -98.0517 303° West 296 341 11,700  Level Houston Center
08:01AM 30.5806 -98.1414 291° West  Level FlightAware Approximate
08:01AM 30.4392 -98.1433 303° West 327 376 13,500  Level Houston Center
08:02AM 30.6224 -98.2671 291° West  Level FlightAware Approximate
08:02AM 30.4928 -98.2369 304° West 341 392 15,200  Level Houston Center
08:03AM 30.5500 -98.3325 305° West 352 405 17,100 1,560 Climbing Houston Center
08:04AM 30.6353 -98.3967 327° Northwest 359 413 18,400 1,320 Climbing Houston Center
08:05AM 30.7222 -98.4636 327° Northwest 366 421 19,800 1,320 Climbing Houston Center
08:06AM 30.8100 -98.5331 326° Northwest 374 430 21,100 1,260 Climbing Houston Center
08:07AM 30.9014 -98.6047 326° Northwest 388 447 22,400 1,140 Climbing Houston Center
08:08AM 30.9958 -98.6775 327° Northwest 398 458 23,400 1,140 Climbing Houston Center
08:09AM 31.0911 -98.7511 327° Northwest 404 465 24,800 1,080 Climbing Houston Center
08:10AM 31.1881 -98.8278 326° Northwest 414 476 25,700 960 Climbing Houston Center
08:11AM 31.2878 -98.9058 326° Northwest 423 487 26,800 1,140 Climbing Houston Center
08:12AM 31.3858 -98.9847 326° Northwest 424 488 28,000 1,020 Climbing Houston Center
08:13AM 31.4842 -99.0622 326° Northwest 422 486 28,900 900 Climbing Houston Center
08:14AM 31.5831 -99.1419 326° Northwest 425 489 29,900 840 Climbing Houston Center
08:15AM 31.6453 -99.1947 324° Northwest 421 484 30,400 660 Climbing Fort Worth Center
08:16AM 31.7275 -99.2917 315° West 421 484 31,100 840 Climbing Fort Worth Center
08:17AM 31.8114 -99.3936 314° West 431 496 32,100 1,020 Climbing Fort Worth Center
08:18AM 31.8956 -99.4933 315° West 431 496 33,200 960 Climbing Fort Worth Center
08:19AM 31.9753 -99.5931 313° West 426 490 34,100 720 Climbing Fort Worth Center
08:20AM 32.0569 -99.6956 313° West 420 483 34,700 540 Climbing Fort Worth Center
08:21AM 32.1386 -99.7956 314° West 425 489 35,200 480 Climbing Fort Worth Center
08:22AM 32.2200 -99.8983 313° West 425 489 35,700 600 Climbing Fort Worth Center
08:23AM 32.3036 -100.0014 314° West 425 489 36,400 660 Climbing Fort Worth Center
08:24AM 32.3850 -100.1022 314° West 420 483 37,100 660 Climbing Fort Worth Center
08:25AM 32.4642 -100.2031 313° West 420 483 37,800 420 Climbing Fort Worth Center
08:26AM 32.5433 -100.3042 313° West 420 483 38,000 60 Climbing Fort Worth Center
08:27AM 32.6325 -100.4131 314° West 420 483 38,000  Level Fort Worth Center
08:28AM 32.7136 -100.5169 313° West 420 483 38,000  Level Fort Worth Center
08:29AM 32.7944 -100.6161 314° West 420 483 38,000  Level Fort Worth Center
08:30AM 32.8772 -100.7231 313° West 420 483 38,000  Level Fort Worth Center
08:31AM 32.9600 -100.8300 313° West 426 490 38,000  Level Fort Worth Center
08:32AM 33.0428 -100.9347 313° West 426 490 38,000  Level Fort Worth Center
08:33AM 33.1275 -101.0375 315° West 426 490 38,000  Level Fort Worth Center
08:34AM 33.2017 -101.1372 312° West 439 505 38,000  Level Fort Worth Center
08:35AM 33.2944 -101.2506 314° West 431 496 38,000  Level Fort Worth Center
08:36AM 33.3686 -101.3483 312° West 431 496 38,000  Level Fort Worth Center
08:37AM 33.4586 -101.4644 313° West 431 496 38,000  Level Fort Worth Center
08:38AM 33.5328 -101.5625 312° West 426 490 38,000  Level Fort Worth Center
08:39AM 33.6267 -101.6842 313° West 447 514 38,000  Level Fort Worth Center
08:40AM 33.7086 -101.7906 313° West 440 506 38,000  Level Fort Worth Center
08:41AM 33.7803 -101.8864 312° West 440 506 38,000  Level Fort Worth Center
08:42AM 33.8678 -102.0036 312° West 432 497 38,000  Level Fort Worth Center
08:43AM 33.9911 -102.1650 313° West 426 490 38,000  Level Albuquerque Center
08:44AM 34.0694 -102.2697 312° West 423 487 38,000  Level Albuquerque Center
08:45AM 34.1475 -102.3742 312° West 421 484 38,000  Level Albuquerque Center
08:46AM 34.2222 -102.4717 313° West 419 482 38,000  Level Albuquerque Center
08:47AM 34.3006 -102.5764 312° West 419 482 38,000  Level Albuquerque Center
08:48AM 34.3778 -102.6800 312° West 417 480 38,000  Level Albuquerque Center
08:49AM 34.4547 -102.7856 311° West 416 479 38,000  Level Albuquerque Center
08:50AM 34.5253 -102.8994 307° West 405 466 38,000  Level Albuquerque Center
08:51AM 34.5861 -103.0153 303° West 406 467 38,000  Level Albuquerque Center
08:52AM 34.6469 -103.1300 303° West 402 463 38,000  Level Albuquerque Center
08:53AM 34.7072 -103.2456 302° West 402 463 38,000  Level Albuquerque Center
08:54AM 34.7672 -103.3622 302° West 403 464 38,000  Level Albuquerque Center
08:55AM 34.8269 -103.4792 302° West 403 464 38,000  Level Albuquerque Center
08:56AM 34.8858 -103.5950 302° West 400 460 38,000  Level Albuquerque Center
08:57AM 34.9461 -103.7117 302° West 402 463 38,000  Level Albuquerque Center
08:58AM 35.0061 -103.8281 302° West 402 463 38,000  Level Albuquerque Center
08:59AM 35.0686 -103.9525 302° West 401 461 38,000  Level Albuquerque Center
09:00AM 35.1283 -104.0686 302° West 403 464 38,000  Level Albuquerque Center
09:01AM 35.1856 -104.1831 301° West 398 458 38,000  Level Albuquerque Center
09:02AM 35.2447 -104.2983 302° West 399 459 38,000  Level Albuquerque Center
09:03AM 35.2992 -104.4078 301° West 399 459 38,000  Level Albuquerque Center
09:04AM 35.3522 -104.5156 301° West 394 453 38,000  Level Albuquerque Center
09:05AM 35.4092 -104.6325 301° West 395 455 38,000  Level Albuquerque Center
09:06AM 35.4675 -104.7489 302° West 396 456 38,000  Level Albuquerque Center
09:07AM 35.5247 -104.8658 301° West 397 457 38,000  Level Albuquerque Center
09:08AM 35.5825 -104.9833 301° West 398 458 38,000  Level Albuquerque Center
09:09AM 35.6400 -105.1003 301° West 398 458 38,000  Level Albuquerque Center
09:10AM 35.6919 -105.2200 298° West 395 455 38,000  Level Albuquerque Center
09:11AM 35.7383 -105.3453 295° West 397 457 38,000  Level Albuquerque Center
09:12AM 35.7853 -105.4686 295° West 396 456 38,000  Level Albuquerque Center
09:13AM 35.8336 -105.5925 296° West 399 459 38,000  Level Albuquerque Center
09:14AM 35.8803 -105.7156 295° West 397 457 38,000  Level Albuquerque Center
09:15AM 35.9278 -105.8397 295° West 401 461 38,000  Level Albuquerque Center
09:16AM 35.9736 -105.9614 295° West 396 456 38,000  Level Albuquerque Center
09:17AM 36.0203 -106.0861 295° West 400 460 38,000  Level Albuquerque Center
09:18AM 36.0672 -106.2108 295° West 401 461 38,000  Level Albuquerque Center
09:19AM 36.1144 -106.3369 295° West 404 465 38,000  Level Albuquerque Center
09:20AM 36.1594 -106.4600 294° West 399 459 38,000  Level Albuquerque Center
09:21AM 36.2150 -106.6086 295° West 400 460 38,000  Level Albuquerque Center
09:22AM 36.2586 -106.7289 294° West 400 460 38,000  Level Albuquerque Center
09:23AM 36.3031 -106.8492 295° West 401 461 38,000  Level Albuquerque Center
09:25AM 36.3539 -106.9900 294° West 401 461 38,000  Level Albuquerque Center
09:25AM 36.3897 -107.0906 294° West 404 465 38,000  Level Denver Center
09:26AM 36.4350 -107.2117 295° West 403 464 38,000  Level Denver Center
09:27AM 36.4778 -107.3331 294° West 403 464 38,000  Level Denver Center
09:28AM 36.5289 -107.4753 294° West 403 464 38,000  Level Denver Center
09:29AM 36.5728 -107.5978 294° West 406 467 38,000  Level Denver Center
09:30AM 36.6233 -107.7406 294° West 405 466 38,000  Level Denver Center
09:31AM 36.6681 -107.8647 294° West 409 471 38,000  Level Denver Center
09:32AM 36.7114 -107.9903 293° West 411 473 38,000  Level Denver Center
09:33AM 36.7628 -108.1353 294° West 412 474 38,000  Level Denver Center
09:34AM 36.8064 -108.2606 294° West 412 474 38,000  Level Denver Center
09:35AM 36.8511 -108.3875 294° West 417 480 38,000  Level Denver Center
09:36AM 36.9028 -108.5350 294° West 417 480 38,000  Level Denver Center
09:37AM 36.9478 -108.6614 294° West 417 480 38,000  Level Denver Center
09:39AM 36.9919 -108.7889 293° West 418 481 38,000  Level Denver Center
09:40AM 37.0442 -108.9386 294° West 421 484 38,000  Level Denver Center
09:41AM 37.0889 -109.0672 294° West 423 487 38,000  Level Denver Center
09:42AM 37.1333 -109.1967 293° West 424 488 38,000  Level Denver Center
09:43AM 37.1847 -109.3492 293° West 426 490 38,000  Level Denver Center
09:44AM 37.2292 -109.4789 293° West 426 490 38,000  Level Denver Center
09:45AM 37.2811 -109.6328 293° West 430 495 38,000  Level Denver Center
09:46AM 37.3256 -109.7650 293° West 430 495 38,000  Level Denver Center
09:47AM 37.3703 -109.8972 293° West 430 495 38,000  Level Denver Center
09:48AM 37.4225 -110.0519 293° West 430 495 38,000  Level Denver Center
09:49AM 37.4697 -110.1944 293° West 435 501 38,000  Level Denver Center
09:50AM 37.5106 -110.3186 293° West 428 493 38,000  Level Denver Center
09:51AM 37.5628 -110.4764 293° West 436 502 38,000  Level Denver Center
09:52AM 37.6022 -110.5981 292° West 434 499 38,000  Level Denver Center
09:53AM 37.6475 -110.7375 292° West 432 497 38,000  Level Denver Center
09:54AM 37.7036 -110.9067 293° West 436 502 38,000  Level Denver Center
09:55AM 37.7378 -111.0828 284° West 433 498 38,000  Level Denver Center
09:56AM 37.7536 -111.1708 283° West 433 498 38,000  Level Salt Lake Center
09:57AM 37.7769 -111.3186 281° West 430 495 38,000  Level Salt Lake Center
09:58AM 37.8033 -111.4672 283° West 434 499 38,000  Level Salt Lake Center
09:59AM 37.8283 -111.6167 282° West 434 499 38,000  Level Salt Lake Center
10:00AM 37.8517 -111.7642 281° West 431 496 38,000  Level Salt Lake Center
10:01AM 37.8761 -111.9156 282° West 436 502 38,000  Level Salt Lake Center
10:02AM 37.9006 -112.0644 282° West 436 502 38,000  Level Salt Lake Center
10:03AM 37.9258 -112.2147 282° West 438 504 38,000  Level Salt Lake Center
10:04AM 37.9539 -112.3953 281° West 437 503 38,000  Level Salt Lake Center
10:05AM 37.9781 -112.5458 282° West 439 505 38,000  Level Salt Lake Center
10:06AM 38.0011 -112.6969 281° West 441 507 38,000  Level Salt Lake Center
10:07AM 38.0250 -112.8486 281° West 444 511 38,000  Level Salt Lake Center
10:08AM 38.0478 -113.0000 281° West 442 509 38,000  Level Salt Lake Center
10:09AM 38.0714 -113.1522 281° West 443 510 38,000  Level Salt Lake Center
10:10AM 38.0936 -113.3036 281° West 441 507 38,000  Level Salt Lake Center
10:11AM 38.1161 -113.4553 281° West 442 509 38,000  Level Salt Lake Center
10:12AM 38.1428 -113.6383 281° West 442 509 38,000  Level Salt Lake Center
10:13AM 38.1656 -113.7917 281° West 443 510 38,000  Level Salt Lake Center
10:14AM 38.1869 -113.9453 280° West 443 510 38,000  Level Salt Lake Center
10:15AM 38.2092 -114.0978 281° West 442 509 38,000  Level Salt Lake Center
10:16AM 38.2308 -114.2511 280° West 442 509 38,000  Level Salt Lake Center
10:17AM 38.2497 -114.4078 279° West 446 513 38,000  Level Salt Lake Center
10:18AM 38.2397 -114.5636 265° West 443 510 38,000  Level Salt Lake Center
10:19AM 38.2300 -114.7208 266° West 447 514 38,000  Level Salt Lake Center
10:20AM 38.2208 -114.8786 266° West 449 517 38,000  Level Salt Lake Center
10:21AM 38.2114 -115.0350 266° West 447 514 38,000  Level Salt Lake Center
10:22AM 38.1994 -115.2242 265° West 446 513 38,000  Level Salt Lake Center
10:23AM 38.1878 -115.3842 265° West 453 521 38,000  Level Salt Lake Center
10:24AM 38.1769 -115.5428 265° West 452 520 38,000  Level Salt Lake Center
10:25AM 38.1656 -115.7039 265° West 456 525 38,000  Level Salt Lake Center
10:26AM 38.1547 -115.8653 265° West 458 527 38,000  Level Salt Lake Center
10:27AM 38.1428 -116.0267 265° West 460 529 38,000  Level Salt Lake Center
10:28AM 38.1306 -116.1889 265° West 461 531 38,000  Level Salt Lake Center
10:29AM 38.1208 -116.3194 265° West 462 532 38,000  Level Oakland Center
10:30AM 38.1089 -116.4828 265° West 464 534 38,000  Level Oakland Center
10:30AM 38.1061 -116.5169 264° West 465 535 38,000  Level Salt Lake Center
10:31AM 38.0928 -116.6800 264° West 465 535 38,000  Level Salt Lake Center
10:32AM 38.0800 -116.8447 264° West 466 536 38,000  Level Salt Lake Center
10:33AM 38.0697 -116.9742 264° West 465 535 38,000  Level Oakland Center
10:34AM 38.0553 -117.1431 264° West 470 541 38,000  Level Oakland Center
10:35AM 38.0383 -117.3153 263° West 475 547 38,000  Level Oakland Center
10:36AM 38.0225 -117.4811 263° West 471 542 38,000  Level Oakland Center
10:37AM 38.0061 -117.6450 263° West 468 539 38,000  Level Oakland Center
10:38AM 37.9900 -117.8092 263° West 469 540 38,000  Level Oakland Center
10:39AM 37.9733 -117.9722 263° West 468 539 38,000  Level Oakland Center
10:40AM 37.9561 -118.1372 263° West 471 542 38,000  Level Oakland Center
10:41AM 37.9389 -118.3022 263° West 471 542 38,000  Level Oakland Center
10:42AM 37.9214 -118.4683 262° West 474 545 38,000 -420 Level Oakland Center
10:43AM 37.9028 -118.6328 262° West 473 544 37,200 -900 Descending Oakland Center
10:44AM 37.8844 -118.7994 262° West 478 550 36,200 -600 Descending Oakland Center
10:45AM 37.8669 -118.9661 262° West 479 551 36,000 -120 Descending Oakland Center
10:46AM 37.8456 -119.1317 261° West 478 550 36,000  Level Oakland Center
10:47AM 37.8286 -119.2975 263° West 477 549 36,000  Level Oakland Center
10:48AM 37.8108 -119.4600 262° West 472 543 36,000  Level Oakland Center
10:49AM 37.7908 -119.6239 261° West 470 541 36,000  Level Oakland Center
10:50AM 37.7728 -119.7889 262° West 474 545 36,000  Level Oakland Center
10:51AM 37.7525 -119.9533 261° West 472 543 36,000 -540 Level Oakland Center
10:52AM 37.7333 -120.1189 262° West 475 547 35,000 -1,800 Descending Oakland Center
10:53AM 37.7133 -120.2806 261° West 468 539 32,400 -2,220 Descending Oakland Center
10:54AM 37.6933 -120.4364 261° West 452 520 30,600 -2,160 Descending Oakland Center
10:55AM 37.6747 -120.5900 261° West 444 511 28,100 -2,880 Descending Oakland Center
10:56AM 37.6531 -120.7611 261° West 415 478 24,900 -3,000 Descending Oakland Center
10:57AM 37.6344 -120.9011 261° West 405 466 22,000 -2,760 Descending Oakland Center
10:58AM 37.6333 -120.9667 269° West 400 460 20,900 -2,700 Descending Northern Cal TRACON
10:59AM 37.6167 -121.0833 260° West 400 460 18,400 -2,880 Descending Northern Cal TRACON
10:59AM 37.6000 -121.2000 260° West 403 464 15,800 -2,580 Descending Northern Cal TRACON
11:01AM 37.5667 -121.3500 254° West 385 443 13,300 -2,100 Descending Northern Cal TRACON
11:01AM 37.5500 -121.4667 260° West 374 430 11,600 -1,320 Descending Northern Cal TRACON
11:02AM 37.5333 -121.5833 260° West 363 418 11,000 -600 Descending Northern Cal TRACON
11:03AM 37.5167 -121.6833 258° West 306 352 10,600 -900 Descending Northern Cal TRACON
11:04AM 37.5000 -121.7667 256° West 270 311 9,300 -1,320 Descending Northern Cal TRACON
11:05AM 37.4833 -121.8667 258° West 275 316 7,900 -1,020 Descending Northern Cal TRACON
11:06AM 37.5000 -121.9500 284° West 240 276 7,200 -1,200 Descending Northern Cal TRACON
11:07AM 37.5167 -122.0333 284° West 264 304 5,700 -1,140 Descending Northern Cal TRACON
11:08AM 37.5333 -122.1000 288° West 206 237 5,100 -1,080 Descending Northern Cal TRACON
11:09AM 37.5583 -122.1731 293° West 203 234 3,500 -1,440 Descending Oakland Center